sensor_id;sensor_type;location;lat;lon;timestamp;temperature;humidity
63899;HTU21D;50070;-32.946;-60.652;2023-05-07T00:02:06;17.59;103.86
63899;HTU21D;50070;-32.946;-60.652;2023-05-07T00:04:33;17.47;103.87
63899;HTU21D;50070;-32.946;-60.652;2023-05-07T00:07:04;17.53;103.21
63899;HTU21D;50070;-32.946;-60.652;2023-05-07T00:09:31;17.55;102.11
63899;HTU21D;50070;-32.946;-60.652;2023-05-07T00:11:58;17.62;101.31
63899;HTU21D;50070;-32.946;-60.652;2023-05-07T00:14:24;17.58;101.54
63899;HTU21D;50070;-32.946;-60.652;2023-05-07T00:16:51;17.70;100.64
63899;HTU21D;50070;-32.946;-60.652;2023-05-07T00:19:17;17.69;100.97
63899;HTU21D;50070;-32.946;-60.652;2023-05-07T00:21:44;17.74;100.86
63899;HTU21D;50070;-32.946;-60.652;2023-05-07T00:24:11;17.75;101.20
63899;HTU21D;50070;-32.946;-60.652;2023-05-07T00:26:38;17.69;101.38
63899;HTU21D;50070;-32.946;-60.652;2023-05-07T00:29:04;17.77;100.35
63899;HTU21D;50070;-32.946;-60.652;2023-05-07T00:31:31;17.73;100.80
63899;HTU21D;50070;-32.946;-60.652;2023-05-07T00:33:58;17.77;100.70
63899;HTU21D;50070;-32.946;-60.652;2023-05-07T00:36:24;17.73;101.10
63899;HTU21D;50070;-32.946;-60.652;2023-05-07T00:38:53;17.88;100.59
63899;HTU21D;50070;-32.946;-60.652;2023-05-07T00:41:20;17.80;100.74
63899;HTU21D;50070;-32.946;-60.652;2023-05-07T00:43:46;17.73;101.22
63899;HTU21D;50070;-32.946;-60.652;2023-05-07T00:46:13;17.67;101.08
63899;HTU21D;50070;-32.946;-60.652;2023-05-07T00:48:41;17.72;100.94
63899;HTU21D;50070;-32.946;-60.652;2023-05-07T00:51:09;17.68;100.85
63899;HTU21D;50070;-32.946;-60.652;2023-05-07T00:53:37;17.76;100.58
63899;HTU21D;50070;-32.946;-60.652;2023-05-07T00:56:04;17.85;100.01
63899;HTU21D;50070;-32.946;-60.652;2023-05-07T00:58:33;17.62;100.51
63899;HTU21D;50070;-32.946;-60.652;2023-05-07T01:01:00;17.64;100.32
63899;HTU21D;50070;-32.946;-60.652;2023-05-07T01:03:26;17.61;100.27
63899;HTU21D;50070;-32.946;-60.652;2023-05-07T01:05:54;17.72;99.13
63899;HTU21D;50070;-32.946;-60.652;2023-05-07T01:08:21;17.78;98.96
63899;HTU21D;50070;-32.946;-60.652;2023-05-07T01:10:49;17.72;98.59
63899;HTU21D;50070;-32.946;-60.652;2023-05-07T01:13:17;17.55;99.51
63899;HTU21D;50070;-32.946;-60.652;2023-05-07T01:15:43;17.47;99.23
63899;HTU21D;50070;-32.946;-60.652;2023-05-07T01:18:11;17.60;99.09
63899;HTU21D;50070;-32.946;-60.652;2023-05-07T01:20:38;17.70;97.85
63899;HTU21D;50070;-32.946;-60.652;2023-05-07T01:23:05;17.62;98.11
63899;HTU21D;50070;-32.946;-60.652;2023-05-07T01:25:33;17.62;95.54
63899;HTU21D;50070;-32.946;-60.652;2023-05-07T01:28:00;17.73;95.76
63899;HTU21D;50070;-32.946;-60.652;2023-05-07T01:30:28;17.75;95.49
63899;HTU21D;50070;-32.946;-60.652;2023-05-07T01:35:42;17.79;94.21
63899;HTU21D;50070;-32.946;-60.652;2023-05-07T01:38:10;17.78;94.12
63899;HTU21D;50070;-32.946;-60.652;2023-05-07T01:40:37;17.81;93.67
63899;HTU21D;50070;-32.946;-60.652;2023-05-07T01:43:05;17.51;95.20
63899;HTU21D;50070;-32.946;-60.652;2023-05-07T01:45:33;17.64;94.94
63899;HTU21D;50070;-32.946;-60.652;2023-05-07T01:48:01;17.85;93.96
63899;HTU21D;50070;-32.946;-60.652;2023-05-07T01:50:29;17.77;94.07
63899;HTU21D;50070;-32.946;-60.652;2023-05-07T01:52:57;18.08;92.71
63899;HTU21D;50070;-32.946;-60.652;2023-05-07T01:55:23;17.78;93.61
63899;HTU21D;50070;-32.946;-60.652;2023-05-07T01:57:50;17.91;92.76
63899;HTU21D;50070;-32.946;-60.652;2023-05-07T02:00:17;18.11;92.18
63899;HTU21D;50070;-32.946;-60.652;2023-05-07T02:02:45;18.04;92.62
63899;HTU21D;50070;-32.946;-60.652;2023-05-07T02:05:11;18.02;91.76
63899;HTU21D;50070;-32.946;-60.652;2023-05-07T02:07:38;18.04;91.69
63899;HTU21D;50070;-32.946;-60.652;2023-05-07T02:10:05;17.88;91.32
63899;HTU21D;50070;-32.946;-60.652;2023-05-07T02:12:32;17.94;92.02
63899;HTU21D;50070;-32.946;-60.652;2023-05-07T02:14:59;17.94;92.50
63899;HTU21D;50070;-32.946;-60.652;2023-05-07T02:17:25;17.92;92.60
63899;HTU21D;50070;-32.946;-60.652;2023-05-07T02:19:52;17.94;92.56
63899;HTU21D;50070;-32.946;-60.652;2023-05-07T02:22:19;18.07;91.89
63899;HTU21D;50070;-32.946;-60.652;2023-05-07T02:24:46;17.85;92.27
63899;HTU21D;50070;-32.946;-60.652;2023-05-07T02:27:12;17.76;93.67
63899;HTU21D;50070;-32.946;-60.652;2023-05-07T02:29:39;17.83;92.69
63899;HTU21D;50070;-32.946;-60.652;2023-05-07T02:32:06;17.78;93.56
63899;HTU21D;50070;-32.946;-60.652;2023-05-07T02:34:33;17.94;92.70
63899;HTU21D;50070;-32.946;-60.652;2023-05-07T02:36:59;17.85;92.81
63899;HTU21D;50070;-32.946;-60.652;2023-05-07T02:39:26;17.96;93.00
63899;HTU21D;50070;-32.946;-60.652;2023-05-07T02:41:53;17.83;93.66
63899;HTU21D;50070;-32.946;-60.652;2023-05-07T02:44:19;17.68;94.57
63899;HTU21D;50070;-32.946;-60.652;2023-05-07T02:46:46;17.70;94.88
63899;HTU21D;50070;-32.946;-60.652;2023-05-07T02:49:13;17.63;94.97
63899;HTU21D;50070;-32.946;-60.652;2023-05-07T02:51:39;17.62;94.40
63899;HTU21D;50070;-32.946;-60.652;2023-05-07T02:54:06;17.56;95.64
63899;HTU21D;50070;-32.946;-60.652;2023-05-07T02:56:33;17.46;95.26
63899;HTU21D;50070;-32.946;-60.652;2023-05-07T02:59:00;17.61;95.13
63899;HTU21D;50070;-32.946;-60.652;2023-05-07T03:01:26;17.69;94.69
63899;HTU21D;50070;-32.946;-60.652;2023-05-07T03:03:53;17.59;95.56
63899;HTU21D;50070;-32.946;-60.652;2023-05-07T03:06:20;17.50;95.20
63899;HTU21D;50070;-32.946;-60.652;2023-05-07T03:08:47;17.62;94.53
63899;HTU21D;50070;-32.946;-60.652;2023-05-07T03:11:13;17.48;95.30
63899;HTU21D;50070;-32.946;-60.652;2023-05-07T03:13:40;17.49;95.05
63899;HTU21D;50070;-32.946;-60.652;2023-05-07T03:16:07;17.45;95.17
63899;HTU21D;50070;-32.946;-60.652;2023-05-07T03:18:33;17.50;94.67
63899;HTU21D;50070;-32.946;-60.652;2023-05-07T03:21:00;17.35;95.42
63899;HTU21D;50070;-32.946;-60.652;2023-05-07T03:23:27;17.34;95.67
63899;HTU21D;50070;-32.946;-60.652;2023-05-07T03:25:53;17.32;95.43
63899;HTU21D;50070;-32.946;-60.652;2023-05-07T03:28:20;17.29;95.60
63899;HTU21D;50070;-32.946;-60.652;2023-05-07T03:30:47;17.28;95.32
63899;HTU21D;50070;-32.946;-60.652;2023-05-07T03:33:14;17.22;95.53
63899;HTU21D;50070;-32.946;-60.652;2023-05-07T03:35:41;17.19;95.81
63899;HTU21D;50070;-32.946;-60.652;2023-05-07T03:38:08;17.21;96.26
63899;HTU21D;50070;-32.946;-60.652;2023-05-07T03:40:34;17.00;96.78
63899;HTU21D;50070;-32.946;-60.652;2023-05-07T03:43:01;17.10;96.29
63899;HTU21D;50070;-32.946;-60.652;2023-05-07T03:45:28;17.07;95.69
63899;HTU21D;50070;-32.946;-60.652;2023-05-07T03:47:55;17.19;95.56
63899;HTU21D;50070;-32.946;-60.652;2023-05-07T03:50:21;17.24;95.09
63899;HTU21D;50070;-32.946;-60.652;2023-05-07T03:52:48;17.13;95.22
63899;HTU21D;50070;-32.946;-60.652;2023-05-07T03:55:15;17.08;95.36
63899;HTU21D;50070;-32.946;-60.652;2023-05-07T03:57:41;17.14;95.26
63899;HTU21D;50070;-32.946;-60.652;2023-05-07T04:00:08;17.06;95.65
63899;HTU21D;50070;-32.946;-60.652;2023-05-07T04:02:35;17.03;95.84
63899;HTU21D;50070;-32.946;-60.652;2023-05-07T04:05:02;16.99;96.10
63899;HTU21D;50070;-32.946;-60.652;2023-05-07T04:07:29;16.91;96.18
63899;HTU21D;50070;-32.946;-60.652;2023-05-07T04:09:56;17.05;95.65
63899;HTU21D;50070;-32.946;-60.652;2023-05-07T04:12:22;17.05;95.85
63899;HTU21D;50070;-32.946;-60.652;2023-05-07T04:14:49;16.87;96.58
63899;HTU21D;50070;-32.946;-60.652;2023-05-07T04:17:16;16.76;97.22
63899;HTU21D;50070;-32.946;-60.652;2023-05-07T04:19:42;16.80;96.62
63899;HTU21D;50070;-32.946;-60.652;2023-05-07T04:22:12;16.55;98.23
63899;HTU21D;50070;-32.946;-60.652;2023-05-07T04:24:38;16.50;98.65
63899;HTU21D;50070;-32.946;-60.652;2023-05-07T04:27:05;16.56;98.43
63899;HTU21D;50070;-32.946;-60.652;2023-05-07T04:29:32;16.44;99.02
63899;HTU21D;50070;-32.946;-60.652;2023-05-07T04:31:59;16.59;98.61
63899;HTU21D;50070;-32.946;-60.652;2023-05-07T04:34:25;16.63;98.54
63899;HTU21D;50070;-32.946;-60.652;2023-05-07T04:36:52;16.56;98.45
63899;HTU21D;50070;-32.946;-60.652;2023-05-07T04:39:19;16.62;98.41
63899;HTU21D;50070;-32.946;-60.652;2023-05-07T04:41:46;16.60;98.43
63899;HTU21D;50070;-32.946;-60.652;2023-05-07T04:44:12;16.47;99.09
63899;HTU21D;50070;-32.946;-60.652;2023-05-07T04:46:39;16.44;99.56
63899;HTU21D;50070;-32.946;-60.652;2023-05-07T04:49:06;16.47;99.14
63899;HTU21D;50070;-32.946;-60.652;2023-05-07T04:51:32;16.46;99.15
63899;HTU21D;50070;-32.946;-60.652;2023-05-07T04:53:59;16.43;99.36
63899;HTU21D;50070;-32.946;-60.652;2023-05-07T04:56:28;16.44;99.20
63899;HTU21D;50070;-32.946;-60.652;2023-05-07T04:58:55;16.37;99.64
63899;HTU21D;50070;-32.946;-60.652;2023-05-07T05:01:22;16.39;99.83
63899;HTU21D;50070;-32.946;-60.652;2023-05-07T05:03:49;16.42;99.60
63899;HTU21D;50070;-32.946;-60.652;2023-05-07T05:06:16;16.70;98.20
63899;HTU21D;50070;-32.946;-60.652;2023-05-07T05:08:42;16.64;98.26
63899;HTU21D;50070;-32.946;-60.652;2023-05-07T05:11:09;16.65;98.13
63899;HTU21D;50070;-32.946;-60.652;2023-05-07T05:13:36;16.61;98.22
63899;HTU21D;50070;-32.946;-60.652;2023-05-07T05:16:03;16.40;99.19
63899;HTU21D;50070;-32.946;-60.652;2023-05-07T05:18:29;16.40;99.45
63899;HTU21D;50070;-32.946;-60.652;2023-05-07T05:20:56;16.54;98.77
63899;HTU21D;50070;-32.946;-60.652;2023-05-07T05:23:23;16.42;99.29
63899;HTU21D;50070;-32.946;-60.652;2023-05-07T05:25:49;16.35;99.83
63899;HTU21D;50070;-32.946;-60.652;2023-05-07T05:28:16;16.40;99.78
63899;HTU21D;50070;-32.946;-60.652;2023-05-07T05:30:43;16.46;99.44
63899;HTU21D;50070;-32.946;-60.652;2023-05-07T05:33:09;16.42;99.30
63899;HTU21D;50070;-32.946;-60.652;2023-05-07T05:35:36;16.51;99.29
63899;HTU21D;50070;-32.946;-60.652;2023-05-07T05:38:03;16.39;99.48
63899;HTU21D;50070;-32.946;-60.652;2023-05-07T05:40:30;16.40;99.35
63899;HTU21D;50070;-32.946;-60.652;2023-05-07T05:42:56;16.35;99.55
63899;HTU21D;50070;-32.946;-60.652;2023-05-07T05:45:23;16.37;99.38
63899;HTU21D;50070;-32.946;-60.652;2023-05-07T05:47:50;16.45;99.00
63899;HTU21D;50070;-32.946;-60.652;2023-05-07T05:50:17;16.56;98.52
63899;HTU21D;50070;-32.946;-60.652;2023-05-07T05:52:44;16.55;98.77
63899;HTU21D;50070;-32.946;-60.652;2023-05-07T05:55:11;16.51;98.91
63899;HTU21D;50070;-32.946;-60.652;2023-05-07T05:57:37;16.39;99.11
63899;HTU21D;50070;-32.946;-60.652;2023-05-07T06:00:05;16.30;99.90
63899;HTU21D;50070;-32.946;-60.652;2023-05-07T06:02:32;16.49;99.15
63899;HTU21D;50070;-32.946;-60.652;2023-05-07T06:04:59;16.44;99.12
63899;HTU21D;50070;-32.946;-60.652;2023-05-07T06:07:26;16.50;98.94
63899;HTU21D;50070;-32.946;-60.652;2023-05-07T06:09:52;16.63;98.10
63899;HTU21D;50070;-32.946;-60.652;2023-05-07T06:12:19;16.48;98.49
63899;HTU21D;50070;-32.946;-60.652;2023-05-07T06:14:46;16.40;98.80
63899;HTU21D;50070;-32.946;-60.652;2023-05-07T06:17:12;16.37;99.28
63899;HTU21D;50070;-32.946;-60.652;2023-05-07T06:19:39;16.46;98.88
63899;HTU21D;50070;-32.946;-60.652;2023-05-07T06:22:06;16.46;98.78
63899;HTU21D;50070;-32.946;-60.652;2023-05-07T06:24:32;16.43;99.06
63899;HTU21D;50070;-32.946;-60.652;2023-05-07T06:26:59;16.35;98.90
63899;HTU21D;50070;-32.946;-60.652;2023-05-07T06:29:26;16.35;99.20
63899;HTU21D;50070;-32.946;-60.652;2023-05-07T06:31:53;16.37;99.22
63899;HTU21D;50070;-32.946;-60.652;2023-05-07T06:34:20;16.36;99.13
63899;HTU21D;50070;-32.946;-60.652;2023-05-07T06:36:47;16.39;99.09
63899;HTU21D;50070;-32.946;-60.652;2023-05-07T06:39:13;16.37;98.98
63899;HTU21D;50070;-32.946;-60.652;2023-05-07T06:41:40;16.25;99.98
63899;HTU21D;50070;-32.946;-60.652;2023-05-07T06:44:07;16.01;100.70
63899;HTU21D;50070;-32.946;-60.652;2023-05-07T06:46:33;16.15;100.12
63899;HTU21D;50070;-32.946;-60.652;2023-05-07T06:49:00;16.14;100.35
63899;HTU21D;50070;-32.946;-60.652;2023-05-07T06:51:29;16.13;100.53
63899;HTU21D;50070;-32.946;-60.652;2023-05-07T06:53:56;16.19;99.83
63899;HTU21D;50070;-32.946;-60.652;2023-05-07T06:56:23;16.45;98.55
63899;HTU21D;50070;-32.946;-60.652;2023-05-07T06:58:51;16.39;98.88
63899;HTU21D;50070;-32.946;-60.652;2023-05-07T07:01:17;16.41;98.64
63899;HTU21D;50070;-32.946;-60.652;2023-05-07T07:03:44;16.40;99.21
63899;HTU21D;50070;-32.946;-60.652;2023-05-07T07:06:11;16.44;98.65
63899;HTU21D;50070;-32.946;-60.652;2023-05-07T07:08:37;16.41;98.81
63899;HTU21D;50070;-32.946;-60.652;2023-05-07T07:11:07;16.45;98.52
63899;HTU21D;50070;-32.946;-60.652;2023-05-07T07:13:34;16.31;99.35
63899;HTU21D;50070;-32.946;-60.652;2023-05-07T07:16:01;16.16;100.12
63899;HTU21D;50070;-32.946;-60.652;2023-05-07T07:18:28;16.34;99.49
63899;HTU21D;50070;-32.946;-60.652;2023-05-07T07:20:54;16.31;99.39
63899;HTU21D;50070;-32.946;-60.652;2023-05-07T07:23:21;16.42;99.06
63899;HTU21D;50070;-32.946;-60.652;2023-05-07T07:25:48;16.41;98.85
63899;HTU21D;50070;-32.946;-60.652;2023-05-07T07:28:15;16.39;98.56
63899;HTU21D;50070;-32.946;-60.652;2023-05-07T07:30:41;16.24;99.19
63899;HTU21D;50070;-32.946;-60.652;2023-05-07T07:33:08;16.48;98.15
63899;HTU21D;50070;-32.946;-60.652;2023-05-07T07:35:35;16.39;98.40
63899;HTU21D;50070;-32.946;-60.652;2023-05-07T07:38:02;16.41;98.50
63899;HTU21D;50070;-32.946;-60.652;2023-05-07T07:40:29;16.36;98.59
63899;HTU21D;50070;-32.946;-60.652;2023-05-07T07:42:57;16.29;99.00
63899;HTU21D;50070;-32.946;-60.652;2023-05-07T07:45:23;16.31;98.50
63899;HTU21D;50070;-32.946;-60.652;2023-05-07T07:47:50;16.49;97.72
63899;HTU21D;50070;-32.946;-60.652;2023-05-07T07:50:16;16.28;98.20
63899;HTU21D;50070;-32.946;-60.652;2023-05-07T07:52:43;16.25;98.42
63899;HTU21D;50070;-32.946;-60.652;2023-05-07T07:55:10;16.30;98.60
63899;HTU21D;50070;-32.946;-60.652;2023-05-07T07:57:38;16.28;98.59
63899;HTU21D;50070;-32.946;-60.652;2023-05-07T08:00:05;16.25;98.77
63899;HTU21D;50070;-32.946;-60.652;2023-05-07T08:02:33;16.04;99.64
63899;HTU21D;50070;-32.946;-60.652;2023-05-07T08:05:00;16.24;98.37
63899;HTU21D;50070;-32.946;-60.652;2023-05-07T08:07:26;16.29;98.76
63899;HTU21D;50070;-32.946;-60.652;2023-05-07T08:09:53;16.16;99.01
63899;HTU21D;50070;-32.946;-60.652;2023-05-07T08:12:20;16.31;98.44
63899;HTU21D;50070;-32.946;-60.652;2023-05-07T08:14:47;16.24;97.92
63899;HTU21D;50070;-32.946;-60.652;2023-05-07T08:17:14;16.21;98.62
63899;HTU21D;50070;-32.946;-60.652;2023-05-07T08:19:42;16.07;99.00
63899;HTU21D;50070;-32.946;-60.652;2023-05-07T08:22:10;16.05;99.01
63899;HTU21D;50070;-32.946;-60.652;2023-05-07T08:24:37;16.17;98.08
63899;HTU21D;50070;-32.946;-60.652;2023-05-07T08:27:03;16.06;98.78
63899;HTU21D;50070;-32.946;-60.652;2023-05-07T08:29:30;16.05;98.82
63899;HTU21D;50070;-32.946;-60.652;2023-05-07T08:31:57;15.75;100.18
63899;HTU21D;50070;-32.946;-60.652;2023-05-07T08:34:24;15.83;99.97
63899;HTU21D;50070;-32.946;-60.652;2023-05-07T08:36:50;15.84;100.07
63899;HTU21D;50070;-32.946;-60.652;2023-05-07T08:39:17;15.88;100.01
63899;HTU21D;50070;-32.946;-60.652;2023-05-07T08:41:48;15.86;99.83
63899;HTU21D;50070;-32.946;-60.652;2023-05-07T08:44:21;15.99;99.33
63899;HTU21D;50070;-32.946;-60.652;2023-05-07T08:46:49;15.86;100.01
63899;HTU21D;50070;-32.946;-60.652;2023-05-07T08:49:20;15.90;99.64
63899;HTU21D;50070;-32.946;-60.652;2023-05-07T08:51:47;15.99;99.18
63899;HTU21D;50070;-32.946;-60.652;2023-05-07T08:54:16;15.95;99.47
63899;HTU21D;50070;-32.946;-60.652;2023-05-07T08:56:43;15.80;100.23
63899;HTU21D;50070;-32.946;-60.652;2023-05-07T08:59:10;15.87;100.13
63899;HTU21D;50070;-32.946;-60.652;2023-05-07T09:01:37;15.95;99.67
63899;HTU21D;50070;-32.946;-60.652;2023-05-07T09:04:05;15.75;100.03
63899;HTU21D;50070;-32.946;-60.652;2023-05-07T09:06:33;15.85;99.96
63899;HTU21D;50070;-32.946;-60.652;2023-05-07T09:09:00;15.80;100.26
63899;HTU21D;50070;-32.946;-60.652;2023-05-07T09:11:28;15.89;99.88
63899;HTU21D;50070;-32.946;-60.652;2023-05-07T09:13:56;15.91;99.93
63899;HTU21D;50070;-32.946;-60.652;2023-05-07T09:16:24;15.95;99.48
63899;HTU21D;50070;-32.946;-60.652;2023-05-07T09:18:52;15.87;100.00
63899;HTU21D;50070;-32.946;-60.652;2023-05-07T09:21:21;15.88;99.67
63899;HTU21D;50070;-32.946;-60.652;2023-05-07T09:23:51;15.85;99.64
63899;HTU21D;50070;-32.946;-60.652;2023-05-07T09:26:18;16.01;98.88
63899;HTU21D;50070;-32.946;-60.652;2023-05-07T09:28:47;15.96;99.35
63899;HTU21D;50070;-32.946;-60.652;2023-05-07T09:31:15;16.10;98.60
63899;HTU21D;50070;-32.946;-60.652;2023-05-07T09:33:41;16.05;98.76
63899;HTU21D;50070;-32.946;-60.652;2023-05-07T09:36:09;16.04;98.90
63899;HTU21D;50070;-32.946;-60.652;2023-05-07T09:38:37;16.06;98.71
63899;HTU21D;50070;-32.946;-60.652;2023-05-07T09:41:10;16.01;98.97
63899;HTU21D;50070;-32.946;-60.652;2023-05-07T09:43:38;15.93;99.37
63899;HTU21D;50070;-32.946;-60.652;2023-05-07T09:46:15;15.75;100.07
63899;HTU21D;50070;-32.946;-60.652;2023-05-07T09:48:44;15.86;99.83
63899;HTU21D;50070;-32.946;-60.652;2023-05-07T09:51:30;15.83;99.63
63899;HTU21D;50070;-32.946;-60.652;2023-05-07T09:53:58;15.81;99.61
63899;HTU21D;50070;-32.946;-60.652;2023-05-07T09:56:28;15.87;99.65
63899;HTU21D;50070;-32.946;-60.652;2023-05-07T09:59:00;15.77;99.74
63899;HTU21D;50070;-32.946;-60.652;2023-05-07T10:01:27;15.67;100.36
63899;HTU21D;50070;-32.946;-60.652;2023-05-07T10:03:55;15.71;100.58
63899;HTU21D;50070;-32.946;-60.652;2023-05-07T10:06:23;15.80;100.04
63899;HTU21D;50070;-32.946;-60.652;2023-05-07T10:08:52;15.82;99.87
63899;HTU21D;50070;-32.946;-60.652;2023-05-07T10:11:19;15.77;100.12
63899;HTU21D;50070;-32.946;-60.652;2023-05-07T10:13:48;15.78;99.79
63899;HTU21D;50070;-32.946;-60.652;2023-05-07T10:16:15;15.84;99.51
63899;HTU21D;50070;-32.946;-60.652;2023-05-07T10:18:43;15.91;99.38
63899;HTU21D;50070;-32.946;-60.652;2023-05-07T10:21:20;15.97;98.51
63899;HTU21D;50070;-32.946;-60.652;2023-05-07T10:24:13;15.69;100.21
63899;HTU21D;50070;-32.946;-60.652;2023-05-07T10:26:44;15.77;100.01
63899;HTU21D;50070;-32.946;-60.652;2023-05-07T10:33:01;15.68;100.55
63899;HTU21D;50070;-32.946;-60.652;2023-05-07T10:35:26;15.71;100.09
63899;HTU21D;50070;-32.946;-60.652;2023-05-07T10:37:53;15.83;99.86
63899;HTU21D;50070;-32.946;-60.652;2023-05-07T10:40:21;15.73;99.96
63899;HTU21D;50070;-32.946;-60.652;2023-05-07T10:42:58;15.71;100.02
63899;HTU21D;50070;-32.946;-60.652;2023-05-07T10:45:28;15.70;100.17
63899;HTU21D;50070;-32.946;-60.652;2023-05-07T10:48:14;15.47;101.13
63899;HTU21D;50070;-32.946;-60.652;2023-05-07T10:50:45;15.49;101.28
63899;HTU21D;50070;-32.946;-60.652;2023-05-07T10:55:50;15.59;100.53
63899;HTU21D;50070;-32.946;-60.652;2023-05-07T10:58:27;15.57;100.61
63899;HTU21D;50070;-32.946;-60.652;2023-05-07T11:01:01;15.59;100.84
63899;HTU21D;50070;-32.946;-60.652;2023-05-07T11:03:29;15.69;100.30
63899;HTU21D;50070;-32.946;-60.652;2023-05-07T11:06:15;15.77;99.45
63899;HTU21D;50070;-32.946;-60.652;2023-05-07T11:11:49;15.68;99.96
63899;HTU21D;50070;-32.946;-60.652;2023-05-07T11:17:07;15.52;100.85
63899;HTU21D;50070;-32.946;-60.652;2023-05-07T11:19:53;15.60;100.81
63899;HTU21D;50070;-32.946;-60.652;2023-05-07T11:25:06;15.70;99.72
63899;HTU21D;50070;-32.946;-60.652;2023-05-07T11:27:33;15.69;99.71
63899;HTU21D;50070;-32.946;-60.652;2023-05-07T11:30:00;15.59;100.22
63899;HTU21D;50070;-32.946;-60.652;2023-05-07T11:32:32;15.56;100.36
63899;HTU21D;50070;-32.946;-60.652;2023-05-07T11:34:59;15.66;100.05
63899;HTU21D;50070;-32.946;-60.652;2023-05-07T11:37:27;15.77;99.48
63899;HTU21D;50070;-32.946;-60.652;2023-05-07T11:40:08;15.49;100.32
63899;HTU21D;50070;-32.946;-60.652;2023-05-07T11:42:40;15.63;99.93
63899;HTU21D;50070;-32.946;-60.652;2023-05-07T11:45:09;15.66;100.30
63899;HTU21D;50070;-32.946;-60.652;2023-05-07T11:47:36;15.65;100.18
63899;HTU21D;50070;-32.946;-60.652;2023-05-07T11:50:07;15.70;100.18
63899;HTU21D;50070;-32.946;-60.652;2023-05-07T11:52:35;15.69;100.02
63899;HTU21D;50070;-32.946;-60.652;2023-05-07T11:55:03;15.66;100.35
63899;HTU21D;50070;-32.946;-60.652;2023-05-07T11:57:30;15.74;100.12
63899;HTU21D;50070;-32.946;-60.652;2023-05-07T12:00:00;15.68;100.21
63899;HTU21D;50070;-32.946;-60.652;2023-05-07T12:02:28;15.58;101.34
63899;HTU21D;50070;-32.946;-60.652;2023-05-07T12:04:55;15.44;102.38
63899;HTU21D;50070;-32.946;-60.652;2023-05-07T12:07:24;15.60;101.79
63899;HTU21D;50070;-32.946;-60.652;2023-05-07T12:09:51;15.80;100.57
63899;HTU21D;50070;-32.946;-60.652;2023-05-07T12:12:18;15.71;101.06
63899;HTU21D;50070;-32.946;-60.652;2023-05-07T12:14:46;15.59;101.73
63899;HTU21D;50070;-32.946;-60.652;2023-05-07T12:17:14;15.66;101.57
63899;HTU21D;50070;-32.946;-60.652;2023-05-07T12:19:42;15.80;100.92
63899;HTU21D;50070;-32.946;-60.652;2023-05-07T12:22:09;15.59;100.97
63899;HTU21D;50070;-32.946;-60.652;2023-05-07T12:24:58;15.70;100.38
63899;HTU21D;50070;-32.946;-60.652;2023-05-07T12:27:26;15.66;100.36
63899;HTU21D;50070;-32.946;-60.652;2023-05-07T12:29:52;15.74;99.81
63899;HTU21D;50070;-32.946;-60.652;2023-05-07T12:32:19;15.86;99.80
63899;HTU21D;50070;-32.946;-60.652;2023-05-07T12:34:50;15.90;99.87
63899;HTU21D;50070;-32.946;-60.652;2023-05-07T12:37:22;15.97;99.09
63899;HTU21D;50070;-32.946;-60.652;2023-05-07T12:39:50;16.03;98.35
63899;HTU21D;50070;-32.946;-60.652;2023-05-07T12:42:35;16.06;97.78
63899;HTU21D;50070;-32.946;-60.652;2023-05-07T12:45:11;16.12;97.59
63899;HTU21D;50070;-32.946;-60.652;2023-05-07T12:47:38;16.18;97.42
63899;HTU21D;50070;-32.946;-60.652;2023-05-07T12:50:08;16.20;97.23
63899;HTU21D;50070;-32.946;-60.652;2023-05-07T12:52:35;16.29;97.23
63899;HTU21D;50070;-32.946;-60.652;2023-05-07T12:55:08;16.30;96.84
63899;HTU21D;50070;-32.946;-60.652;2023-05-07T12:57:51;16.32;97.02
63899;HTU21D;50070;-32.946;-60.652;2023-05-07T13:00:33;16.40;96.59
63899;HTU21D;50070;-32.946;-60.652;2023-05-07T13:03:00;16.41;96.72
63899;HTU21D;50070;-32.946;-60.652;2023-05-07T13:05:27;16.48;96.75
63899;HTU21D;50070;-32.946;-60.652;2023-05-07T13:07:55;16.64;95.96
63899;HTU21D;50070;-32.946;-60.652;2023-05-07T13:10:22;16.56;96.70
63899;HTU21D;50070;-32.946;-60.652;2023-05-07T13:12:50;16.77;95.79
63899;HTU21D;50070;-32.946;-60.652;2023-05-07T13:15:17;16.98;94.79
63899;HTU21D;50070;-32.946;-60.652;2023-05-07T13:17:44;16.92;95.78
63899;HTU21D;50070;-32.946;-60.652;2023-05-07T13:20:11;16.96;95.49
63899;HTU21D;50070;-32.946;-60.652;2023-05-07T13:22:41;16.92;95.69
63899;HTU21D;50070;-32.946;-60.652;2023-05-07T13:25:08;16.91;95.77
63899;HTU21D;50070;-32.946;-60.652;2023-05-07T13:27:35;17.00;95.71
63899;HTU21D;50070;-32.946;-60.652;2023-05-07T13:30:04;17.07;95.38
63899;HTU21D;50070;-32.946;-60.652;2023-05-07T13:32:31;17.17;95.20
63899;HTU21D;50070;-32.946;-60.652;2023-05-07T13:34:58;17.24;95.12
63899;HTU21D;50070;-32.946;-60.652;2023-05-07T13:37:24;17.45;94.02
63899;HTU21D;50070;-32.946;-60.652;2023-05-07T13:39:51;17.60;93.46
63899;HTU21D;50070;-32.946;-60.652;2023-05-07T13:42:18;17.49;93.12
63899;HTU21D;50070;-32.946;-60.652;2023-05-07T13:44:44;17.52;92.24
63899;HTU21D;50070;-32.946;-60.652;2023-05-07T13:47:12;17.51;93.15
63899;HTU21D;50070;-32.946;-60.652;2023-05-07T13:49:38;17.48;92.69
63899;HTU21D;50070;-32.946;-60.652;2023-05-07T13:52:06;17.66;92.37
63899;HTU21D;50070;-32.946;-60.652;2023-05-07T13:54:33;17.79;90.92
63899;HTU21D;50070;-32.946;-60.652;2023-05-07T13:57:00;17.94;90.92
63899;HTU21D;50070;-32.946;-60.652;2023-05-07T13:59:27;17.88;90.32
63899;HTU21D;50070;-32.946;-60.652;2023-05-07T14:01:54;18.06;90.41
63899;HTU21D;50070;-32.946;-60.652;2023-05-07T14:04:21;17.98;89.70
63899;HTU21D;50070;-32.946;-60.652;2023-05-07T14:06:48;17.94;90.53
63899;HTU21D;50070;-32.946;-60.652;2023-05-07T14:09:14;18.08;90.12
63899;HTU21D;50070;-32.946;-60.652;2023-05-07T14:11:41;18.23;90.50
63899;HTU21D;50070;-32.946;-60.652;2023-05-07T14:14:08;18.41;88.88
63899;HTU21D;50070;-32.946;-60.652;2023-05-07T14:16:37;18.46;89.21
63899;HTU21D;50070;-32.946;-60.652;2023-05-07T14:19:04;18.36;89.22
63899;HTU21D;50070;-32.946;-60.652;2023-05-07T14:21:30;18.48;89.47
63899;HTU21D;50070;-32.946;-60.652;2023-05-07T14:23:57;18.56;88.11
63899;HTU21D;50070;-32.946;-60.652;2023-05-07T14:26:24;18.55;88.47
63899;HTU21D;50070;-32.946;-60.652;2023-05-07T14:28:53;18.64;87.33
63899;HTU21D;50070;-32.946;-60.652;2023-05-07T14:31:21;18.87;86.22
63899;HTU21D;50070;-32.946;-60.652;2023-05-07T14:33:48;18.91;86.83
63899;HTU21D;50070;-32.946;-60.652;2023-05-07T14:36:17;18.89;86.74
63899;HTU21D;50070;-32.946;-60.652;2023-05-07T14:38:46;18.95;85.90
63899;HTU21D;50070;-32.946;-60.652;2023-05-07T14:41:13;19.12;82.31
63899;HTU21D;50070;-32.946;-60.652;2023-05-07T14:43:40;19.27;78.90
63899;HTU21D;50070;-32.946;-60.652;2023-05-07T14:46:07;19.28;76.34
63899;HTU21D;50070;-32.946;-60.652;2023-05-07T14:48:34;19.36;76.76
63899;HTU21D;50070;-32.946;-60.652;2023-05-07T14:51:01;19.44;77.81
63899;HTU21D;50070;-32.946;-60.652;2023-05-07T14:53:27;19.70;76.77